Time;durP1;ratioP1;P1;durP2;ratioP2;P2;SDS_P1;SDS_P2;PMS_P1;PMS_P2;Temp;Humidity;BMP_temperature;BMP_pressure;BME280_temperature;BME280_humidity;BME280_pressure;Samples;Min_cycle;Max_cycle;Signal;HPM_P1;HPM_P2
2022/10/22 00:01:00;;;;;;;12.40;2.67;;;16.20;99.90;;;;;;5050350;28;20045;-83
2022/10/22 00:03:27;;;;;;;11.23;2.60;;;16.20;99.90;;;;;;5051118;28;20049;-83
2022/10/22 00:05:54;;;;;;;6.78;2.80;;;16.20;99.90;;;;;;5051134;28;20512;-83
2022/10/22 00:08:22;;;;;;;8.00;3.00;;;16.20;99.90;;;;;;5036948;28;20053;-83
2022/10/22 00:10:49;;;;;;;14.68;3.75;;;16.20;99.90;;;;;;5050689;28;20409;-83
2022/10/22 00:13:16;;;;;;;16.23;2.65;;;16.20;99.90;;;;;;5049724;28;20057;-83
2022/10/22 00:15:43;;;;;;;8.57;2.80;;;16.20;99.90;;;;;;5044727;28;20045;-83
2022/10/22 00:18:10;;;;;;;9.73;3.15;;;16.20;99.90;;;;;;5050247;28;20048;-83
2022/10/22 00:20:37;;;;;;;10.50;3.25;;;16.20;99.90;;;;;;5045320;28;20046;-83
2022/10/22 00:23:04;;;;;;;7.82;3.05;;;16.20;99.90;;;;;;5043294;28;20045;-83
2022/10/22 00:25:34;;;;;;;10.18;3.15;;;16.20;99.90;;;;;;5045046;28;20049;-83
2022/10/22 00:28:01;;;;;;;9.45;3.30;;;16.20;99.90;;;;;;5051335;28;20452;-83
2022/10/22 00:30:28;;;;;;;10.10;2.90;;;16.20;99.90;;;;;;5064144;28;20029;-83
2022/10/22 00:32:55;;;;;;;9.18;3.13;;;16.20;99.90;;;;;;5042810;28;20041;-83
2022/10/22 00:35:22;;;;;;;9.82;3.22;;;16.20;99.90;;;;;;5048415;28;20036;-83
2022/10/22 00:37:49;;;;;;;13.73;3.10;;;16.20;99.90;;;;;;5050986;28;20037;-83
2022/10/22 00:40:16;;;;;;;10.13;2.97;;;16.20;99.90;;;;;;5047581;28;20118;-83
2022/10/22 00:42:44;;;;;;;7.40;2.90;;;16.20;99.90;;;;;;5042858;28;20048;-83
2022/10/22 00:45:18;;;;;;;8.50;3.22;;;16.20;99.90;;;;;;5044098;28;20074;-83
2022/10/22 00:47:50;;;;;;;7.03;3.00;;;16.20;99.90;;;;;;5045369;28;20055;-83
2022/10/22 00:50:19;;;;;;;10.23;3.50;;;16.20;99.90;;;;;;5048434;28;20413;-83
2022/10/22 00:52:47;;;;;;;7.93;2.83;;;16.20;99.90;;;;;;5061331;28;20045;-83
2022/10/22 00:55:14;;;;;;;7.13;3.30;;;16.20;99.90;;;;;;5046309;28;20045;-83
2022/10/22 00:57:41;;;;;;;10.80;3.22;;;16.30;99.90;;;;;;5038395;28;20068;-83
2022/10/22 01:00:11;;;;;;;12.63;3.13;;;16.30;99.90;;;;;;5044625;28;20052;-83
2022/10/22 01:02:38;;;;;;;8.93;3.42;;;16.30;99.90;;;;;;5044079;28;20049;-83
2022/10/22 01:05:06;;;;;;;10.55;3.40;;;16.30;99.90;;;;;;5045966;28;20052;-83
2022/10/22 01:07:43;;;;;;;9.25;3.45;;;16.30;99.90;;;;;;5044337;28;20044;-83
2022/10/22 01:10:21;;;;;;;13.50;4.20;;;16.30;99.90;;;;;;5042093;28;20055;-83
2022/10/22 01:12:53;;;;;;;10.70;4.00;;;16.30;99.90;;;;;;5050435;28;20037;-83
2022/10/22 01:15:26;;;;;;;12.70;3.25;;;16.30;99.90;;;;;;5041526;28;20045;-83
2022/10/22 01:17:57;;;;;;;10.98;3.25;;;16.30;99.90;;;;;;5050075;28;20524;-83
2022/10/22 01:20:39;;;;;;;;;;;16.30;99.90;;;;;;5050204;28;20033;-83
2022/10/22 01:23:17;;;;;;;9.13;3.28;;;16.30;99.90;;;;;;5043427;28;19929;-83
2022/10/22 01:25:50;;;;;;;8.60;3.55;;;16.30;99.90;;;;;;5048046;28;20045;-83
2022/10/22 01:28:21;;;;;;;12.52;4.07;;;16.30;99.90;;;;;;5044205;28;20344;-83
2022/10/22 01:30:52;;;;;;;10.73;3.28;;;16.30;99.90;;;;;;5045356;28;20088;-83
2022/10/22 01:33:21;;;;;;;10.82;3.13;;;16.30;99.90;;;;;;5045809;28;20052;-83
2022/10/22 01:35:48;;;;;;;10.40;3.60;;;16.30;99.90;;;;;;5041605;28;20116;-83
2022/10/22 01:38:17;;;;;;;9.40;3.33;;;16.30;99.90;;;;;;5049427;28;20052;-83
2022/10/22 01:40:44;;;;;;;13.88;4.10;;;16.30;99.90;;;;;;5049383;28;20048;-83
2022/10/22 01:43:11;;;;;;;10.57;3.90;;;16.30;99.90;;;;;;5033007;28;20051;-83
2022/10/22 01:45:40;;;;;;;7.72;3.50;;;16.30;99.90;;;;;;5046444;28;20040;-83
2022/10/22 01:48:19;;;;;;;9.65;3.63;;;16.30;99.90;;;;;;5075252;22;20051;-83
2022/10/22 01:51:07;;;;;;;11.30;3.38;;;16.30;99.90;;;;;;5089080;28;20043;-83
2022/10/22 01:53:42;;;;;;;10.10;3.60;;;16.30;99.90;;;;;;5082748;28;20089;-83
2022/10/22 01:56:21;;;;;;;10.10;3.95;;;16.30;99.90;;;;;;5089101;28;20052;-83
2022/10/22 01:58:54;;;;;;;12.40;3.63;;;16.50;99.90;;;;;;5064768;28;20040;-84
2022/10/22 02:01:26;;;;;;;7.35;3.40;;;16.30;99.90;;;;;;5065210;28;20040;-83
2022/10/22 02:04:01;;;;;;;10.43;3.67;;;16.30;99.90;;;;;;5068425;28;20540;-83
2022/10/22 02:06:29;;;;;;;10.88;4.10;;;16.30;99.90;;;;;;5070843;28;20409;-83
2022/10/22 02:08:58;;;;;;;10.48;3.30;;;16.30;99.90;;;;;;5069368;28;20055;-83
2022/10/22 02:11:25;;;;;;;9.05;3.65;;;16.30;99.90;;;;;;5068655;28;20033;-83
2022/10/22 02:13:54;;;;;;;13.40;3.92;;;16.20;99.90;;;;;;5076266;28;20044;-84
2022/10/22 02:16:24;;;;;;;12.52;4.22;;;16.30;99.90;;;;;;5054553;28;20063;-84
2022/10/22 02:18:54;;;;;;;11.52;3.97;;;16.30;99.90;;;;;;5068869;28;20059;-83
2022/10/22 02:21:22;;;;;;;10.93;4.32;;;16.30;99.90;;;;;;5068040;28;20509;-83
2022/10/22 02:23:49;;;;;;;10.15;3.90;;;16.30;99.90;;;;;;5067978;28;20055;-83
2022/10/22 02:26:21;;;;;;;11.43;4.72;;;16.30;99.90;;;;;;5073332;28;20067;-83
2022/10/22 02:28:57;;;;;;;9.55;4.35;;;16.30;99.90;;;;;;5074996;28;20425;-83
2022/10/22 02:31:27;;;;;;;10.85;4.18;;;16.30;99.90;;;;;;5058774;28;20091;-83
2022/10/22 02:33:57;;;;;;;12.45;4.60;;;16.50;99.90;;;;;;5068316;28;20040;-83
2022/10/22 02:36:26;;;;;;;9.75;3.83;;;16.30;99.90;;;;;;5064502;28;20354;-83
2022/10/22 02:38:53;;;;;;;12.15;4.32;;;16.30;99.90;;;;;;5077390;28;20186;-84
2022/10/22 02:41:20;;;;;;;9.55;3.78;;;16.30;99.90;;;;;;5067823;28;20045;-84
2022/10/22 02:43:50;;;;;;;11.52;4.07;;;16.30;99.90;;;;;;5066521;28;20036;-83
2022/10/22 02:46:17;;;;;;;9.93;4.07;;;16.30;99.90;;;;;;5076724;28;20050;-84
2022/10/22 02:48:44;;;;;;;15.85;4.68;;;16.30;99.90;;;;;;5065323;28;20041;-83
2022/10/22 02:51:11;;;;;;;10.18;3.78;;;16.30;99.90;;;;;;5063263;28;20425;-83
2022/10/22 02:53:39;;;;;;;9.10;3.85;;;16.30;99.90;;;;;;5067022;28;20051;-83
2022/10/22 02:56:06;;;;;;;9.48;3.92;;;16.30;99.90;;;;;;5078565;28;20126;-83
2022/10/22 02:58:33;;;;;;;12.02;4.57;;;16.30;99.90;;;;;;5089013;28;20061;-83
2022/10/22 03:01:00;;;;;;;11.57;4.28;;;16.30;99.90;;;;;;5070588;28;20393;-83
2022/10/22 03:03:27;;;;;;;9.82;3.95;;;16.30;99.90;;;;;;5067494;28;20043;-84
2022/10/22 03:05:53;;;;;;;10.30;4.60;;;16.30;99.90;;;;;;5070002;28;20102;-83
2022/10/22 03:08:20;;;;;;;12.63;4.40;;;16.30;99.90;;;;;;5067672;28;20048;-83
2022/10/22 03:10:49;;;;;;;15.65;4.65;;;16.30;99.90;;;;;;5067415;28;20033;-83
2022/10/22 03:13:15;;;;;;;13.27;4.20;;;16.30;99.90;;;;;;5067704;28;20041;-83
2022/10/22 03:15:42;;;;;;;10.52;4.22;;;16.30;99.90;;;;;;5073519;28;20060;-83
2022/10/22 03:18:09;;;;;;;13.23;4.63;;;16.30;99.90;;;;;;5078093;28;20044;-84
2022/10/22 03:20:36;;;;;;;8.48;4.78;;;16.30;99.90;;;;;;5051944;28;20408;-83
2022/10/22 03:23:03;;;;;;;13.57;4.60;;;16.30;99.90;;;;;;5066352;28;20044;-83
2022/10/22 03:25:33;;;;;;;11.65;4.68;;;16.30;99.90;;;;;;5062705;28;20050;-83
2022/10/22 03:28:04;;;;;;;12.52;4.45;;;16.30;99.90;;;;;;5075362;28;20148;-84
2022/10/22 03:30:31;;;;;;;14.90;4.90;;;16.30;99.90;;;;;;5067545;28;20033;-84
2022/10/22 03:32:57;;;;;;;14.90;4.80;;;16.30;99.90;;;;;;5067499;28;20048;-83
2022/10/22 03:35:24;;;;;;;9.45;4.63;;;16.30;99.90;;;;;;5067778;28;20527;-83
2022/10/22 03:37:51;;;;;;;14.95;5.13;;;16.30;99.90;;;;;;5068280;28;20048;-83
2022/10/22 03:40:19;;;;;;;12.27;5.25;;;16.30;99.90;;;;;;5049092;28;20049;-83
2022/10/22 03:42:46;;;;;;;11.48;4.75;;;16.30;99.90;;;;;;5063872;28;20493;-83
2022/10/22 03:45:14;;;;;;;11.30;5.40;;;16.30;99.90;;;;;;5070410;28;20051;-83
2022/10/22 03:47:41;;;;;;;13.07;5.30;;;16.30;99.90;;;;;;5070297;28;20047;-83
2022/10/22 03:50:09;;;;;;;9.73;4.88;;;16.30;99.90;;;;;;5067655;28;20115;-83
2022/10/22 03:52:36;;;;;;;13.57;5.25;;;16.20;99.90;;;;;;5063588;28;20047;-83
2022/10/22 03:55:04;;;;;;;14.63;5.25;;;16.20;99.90;;;;;;5076342;28;20507;-83
2022/10/22 03:57:31;;;;;;;11.93;5.40;;;16.20;99.90;;;;;;5067316;28;20040;-84
2022/10/22 03:59:58;;;;;;;10.10;5.18;;;16.20;99.90;;;;;;5061013;28;20425;-83
2022/10/22 04:02:26;;;;;;;12.18;5.00;;;16.20;99.90;;;;;;5067189;28;20123;-83
2022/10/22 04:04:53;;;;;;;13.52;5.30;;;16.20;99.90;;;;;;5075573;28;20051;-83
2022/10/22 04:07:20;;;;;;;9.57;4.85;;;16.20;99.90;;;;;;5077949;28;20044;-83
2022/10/22 04:09:47;;;;;;;14.77;5.38;;;16.20;99.90;;;;;;5083504;28;20044;-83
2022/10/22 04:12:14;;;;;;;13.80;5.47;;;16.20;99.90;;;;;;5070479;28;20040;-83
2022/10/22 04:14:41;;;;;;;9.05;4.70;;;16.20;99.90;;;;;;5076628;28;20047;-83
2022/10/22 04:17:08;;;;;;;12.43;4.97;;;16.20;99.90;;;;;;5057325;28;20056;-83
2022/10/22 04:19:36;;;;;;;9.18;5.20;;;16.20;99.90;;;;;;5076344;28;20044;-83
2022/10/22 04:22:03;;;;;;;11.68;5.03;;;16.20;99.90;;;;;;5072639;28;20048;-83
2022/10/22 04:24:30;;;;;;;14.20;5.47;;;16.20;99.90;;;;;;5070451;28;20040;-83
2022/10/22 04:26:57;;;;;;;10.73;4.95;;;16.20;99.90;;;;;;5076548;28;20501;-83
2022/10/22 04:29:24;;;;;;;9.55;5.03;;;16.20;99.90;;;;;;5071496;28;20040;-83
2022/10/22 04:31:51;;;;;;;11.93;5.10;;;16.20;99.90;;;;;;5070474;28;20783;-84
2022/10/22 04:34:18;;;;;;;12.88;5.20;;;16.20;99.90;;;;;;5069135;28;20047;-83
2022/10/22 04:36:46;;;;;;;16.15;5.45;;;16.20;99.90;;;;;;5069123;28;20040;-83
2022/10/22 04:39:14;;;;;;;10.50;5.30;;;16.30;99.90;;;;;;5070833;28;20067;-83
2022/10/22 04:41:41;;;;;;;10.48;4.78;;;16.30;99.90;;;;;;5070522;28;20039;-84
2022/10/22 04:44:08;;;;;;;12.98;5.47;;;16.30;99.90;;;;;;5078266;28;20114;-83
2022/10/22 04:46:35;;;;;;;11.43;4.75;;;16.30;99.90;;;;;;5084915;28;20127;-83
2022/10/22 04:49:03;;;;;;;9.88;4.93;;;16.30;99.90;;;;;;5076233;28;20045;-83
2022/10/22 04:51:30;;;;;;;11.93;5.00;;;16.30;99.90;;;;;;5067107;28;20508;-84
2022/10/22 04:53:59;;;;;;;13.75;5.55;;;16.30;99.90;;;;;;5069857;28;20044;-83
2022/10/22 04:56:27;;;;;;;14.18;5.10;;;16.30;99.90;;;;;;5067212;28;20048;-83
2022/10/22 04:58:57;;;;;;;14.90;4.72;;;16.30;99.90;;;;;;5079291;28;20040;-83
2022/10/22 05:01:25;;;;;;;11.43;4.82;;;16.30;99.90;;;;;;5051937;28;20056;-83
2022/10/22 05:03:54;;;;;;;10.75;4.70;;;16.30;99.90;;;;;;5070103;28;20040;-83
2022/10/22 05:06:21;;;;;;;12.63;5.03;;;16.30;99.90;;;;;;5077790;28;20036;-83
2022/10/22 05:08:48;;;;;;;11.93;5.22;;;16.30;99.90;;;;;;5071387;28;20050;-83
2022/10/22 05:11:19;;;;;;;12.88;5.20;;;16.30;99.90;;;;;;5069763;28;20055;-84
2022/10/22 05:13:46;;;;;;;9.68;4.68;;;16.30;99.90;;;;;;5069628;28;20048;-83
2022/10/22 05:16:14;;;;;;;10.50;4.88;;;16.30;99.90;;;;;;5077498;28;20055;-83
2022/10/22 05:18:42;;;;;;;10.63;4.68;;;16.30;99.90;;;;;;5070521;28;20044;-84
2022/10/22 05:21:10;;;;;;;10.38;5.00;;;16.30;99.90;;;;;;5068924;28;20049;-83
2022/10/22 05:23:37;;;;;;;9.93;5.47;;;16.30;99.90;;;;;;5050467;28;20451;-83
2022/10/22 05:26:04;;;;;;;12.02;4.82;;;16.30;99.90;;;;;;5069457;28;20044;-83
2022/10/22 05:28:33;;;;;;;12.90;4.75;;;16.30;99.90;;;;;;5070137;28;20044;-83
2022/10/22 05:31:01;;;;;;;11.60;5.28;;;16.30;99.90;;;;;;5069385;28;20051;-83
2022/10/22 05:33:28;;;;;;;12.70;5.55;;;16.30;99.90;;;;;;5069392;28;20048;-83
2022/10/22 05:35:55;;;;;;;8.43;5.20;;;16.20;99.90;;;;;;5081644;28;20054;-84
2022/10/22 05:38:22;;;;;;;13.45;5.10;;;16.20;99.90;;;;;;5069950;28;20595;-84
2022/10/22 05:40:59;;;;;;;11.27;5.05;;;16.20;99.90;;;;;;5069440;28;20043;-84
2022/10/22 05:43:26;;;;;;;11.32;5.35;;;16.20;99.90;;;;;;5064798;28;20121;-80
2022/10/22 05:45:54;;;;;;;14.32;5.18;;;16.20;99.90;;;;;;5066092;28;20058;-80
2022/10/22 05:48:31;;;;;;;13.07;4.80;;;16.20;99.90;;;;;;5075989;28;20036;-80
2022/10/22 05:51:03;;;;;;;16.17;4.95;;;16.20;99.90;;;;;;5066752;28;20527;-80
2022/10/22 05:53:31;;;;;;;11.52;5.03;;;16.20;99.90;;;;;;5067869;28;20048;-80
2022/10/22 05:56:01;;;;;;;10.75;5.40;;;16.10;99.90;;;;;;5068873;28;20064;-80
2022/10/22 05:58:28;;;;;;;15.23;5.55;;;16.10;99.90;;;;;;5074079;28;20093;-80
2022/10/22 06:01:01;;;;;;;11.85;5.32;;;16.10;99.90;;;;;;5078842;28;20041;-81
2022/10/22 06:03:28;;;;;;;14.20;5.40;;;16.10;99.90;;;;;;5064416;28;20033;-80
2022/10/22 06:05:55;;;;;;;15.65;5.85;;;16.10;99.90;;;;;;5077566;28;20037;-80
2022/10/22 06:08:22;;;;;;;13.25;5.63;;;16.10;99.90;;;;;;5069818;28;20044;-80
2022/10/22 06:10:49;;;;;;;12.95;5.22;;;16.10;99.90;;;;;;5068168;28;20047;-80
2022/10/22 06:13:16;;;;;;;16.73;5.90;;;16.10;99.90;;;;;;5068271;28;20051;-79
2022/10/22 06:15:43;;;;;;;9.93;5.50;;;16.10;99.90;;;;;;5052372;28;20044;-79
2022/10/22 06:18:11;;;;;;;14.18;5.15;;;16.10;99.90;;;;;;5051064;28;20044;-81
2022/10/22 06:20:38;;;;;;;11.48;6.05;;;16.10;99.90;;;;;;5063727;28;20040;-81
2022/10/22 06:23:05;;;;;;;11.85;5.90;;;16.10;99.90;;;;;;5067640;28;20059;-81
2022/10/22 06:25:32;;;;;;;15.27;5.90;;;16.10;99.90;;;;;;5077308;28;20409;-81
2022/10/22 06:27:59;;;;;;;14.02;6.40;;;16.10;99.90;;;;;;5070941;28;20055;-81
2022/10/22 06:30:26;;;;;;;15.70;6.20;;;16.10;99.90;;;;;;5068729;28;20052;-81
2022/10/22 06:32:53;;;;;;;16.73;7.07;;;16.10;99.90;;;;;;5050686;28;20041;-81
2022/10/22 06:35:21;;;;;;;14.43;5.95;;;16.10;99.90;;;;;;5071112;28;20508;-80
2022/10/22 06:37:48;;;;;;;12.02;6.05;;;16.10;99.90;;;;;;5057621;28;20115;-80
2022/10/22 06:40:15;;;;;;;15.30;6.28;;;16.10;99.90;;;;;;5068894;28;20052;-79
2022/10/22 06:42:42;;;;;;;13.05;6.32;;;16.10;99.90;;;;;;5066625;28;20068;-79
2022/10/22 06:45:10;;;;;;;12.80;5.75;;;16.10;99.90;;;;;;5068576;28;20592;-79
2022/10/22 06:47:37;;;;;;;13.10;5.50;;;16.10;99.90;;;;;;5049641;28;20059;-79
2022/10/22 06:50:05;;;;;;;12.63;6.18;;;16.10;99.90;;;;;;5043957;28;20531;-79
2022/10/22 06:52:33;;;;;;;12.32;5.40;;;16.10;99.90;;;;;;5079850;28;20051;-79
2022/10/22 06:55:00;;;;;;;15.35;5.60;;;16.10;99.90;;;;;;5059160;28;20067;-79
2022/10/22 06:57:27;;;;;;;11.75;6.13;;;16.20;99.90;;;;;;5061267;28;20123;-78
2022/10/22 06:59:54;;;;;;;11.80;5.70;;;16.20;99.90;;;;;;5066938;28;20047;-79
2022/10/22 07:02:21;;;;;;;9.98;5.05;;;16.20;99.90;;;;;;5067622;28;20523;-78
2022/10/22 07:04:48;;;;;;;14.13;6.50;;;16.20;99.90;;;;;;5055252;28;20123;-79
2022/10/22 07:07:14;;;;;;;15.00;6.30;;;16.20;99.90;;;;;;5058982;28;20071;-79
2022/10/22 07:09:44;;;;;;;12.70;5.55;;;16.20;99.90;;;;;;5068648;28;20045;-78
2022/10/22 07:12:11;;;;;;;14.77;5.75;;;16.20;99.90;;;;;;5068466;28;20051;-77
2022/10/22 07:14:38;;;;;;;12.77;4.90;;;16.20;99.90;;;;;;5055277;28;20447;-78
2022/10/22 07:17:05;;;;;;;12.10;5.20;;;16.20;99.90;;;;;;5066723;28;20408;-78
2022/10/22 07:19:32;;;;;;;13.95;4.82;;;16.20;99.90;;;;;;5067722;28;20496;-82
2022/10/22 07:21:59;;;;;;;15.32;5.00;;;16.20;99.90;;;;;;5067818;28;20115;-78
2022/10/22 07:24:26;;;;;;;10.07;5.15;;;16.20;99.90;;;;;;5058602;28;20045;-78
2022/10/22 07:26:54;;;;;;;11.73;4.70;;;16.30;99.90;;;;;;5070726;28;20041;-80
2022/10/22 07:29:21;;;;;;;19.20;4.93;;;16.30;99.90;;;;;;5046516;28;20044;-79
2022/10/22 07:31:48;;;;;;;11.07;4.90;;;16.30;99.90;;;;;;5061564;28;20043;-79
2022/10/22 07:34:15;;;;;;;9.45;4.47;;;16.30;99.90;;;;;;5070286;28;20053;-79
2022/10/22 07:36:42;;;;;;;16.33;4.82;;;16.30;99.90;;;;;;5075670;28;20044;-78
2022/10/22 07:39:09;;;;;;;11.18;4.50;;;16.40;99.90;;;;;;5086497;28;20123;-78
2022/10/22 07:41:36;;;;;;;8.63;4.07;;;16.40;99.90;;;;;;5061520;28;20045;-78
2022/10/22 07:44:04;;;;;;;15.13;4.88;;;16.50;99.90;;;;;;5068715;28;20068;-78
2022/10/22 07:46:31;;;;;;;11.18;4.30;;;16.50;99.90;;;;;;5066789;28;20044;-78
2022/10/22 07:48:58;;;;;;;11.30;3.92;;;16.50;99.90;;;;;;5096368;22;20051;-85
2022/10/22 07:51:26;;;;;;;9.57;4.03;;;16.60;99.90;;;;;;5072220;28;20059;-85
2022/10/22 07:53:53;;;;;;;15.18;4.05;;;16.60;99.90;;;;;;5071041;28;20048;-85
2022/10/22 07:56:20;;;;;;;13.00;4.45;;;16.70;99.90;;;;;;5083501;28;20055;-84
2022/10/22 07:58:46;;;;;;;11.10;3.75;;;16.60;99.90;;;;;;5085101;28;20079;-88
2022/10/22 08:01:15;;;;;;;17.25;3.70;;;16.70;99.90;;;;;;5089244;28;20055;-84
2022/10/22 08:03:42;;;;;;;12.23;3.60;;;16.70;99.90;;;;;;5091495;28;20058;-83
2022/10/22 08:06:10;;;;;;;7.22;3.33;;;16.70;99.90;;;;;;5090515;28;20048;-82
2022/10/22 08:08:36;;;;;;;9.60;3.20;;;16.70;99.90;;;;;;5091480;28;20040;-86
2022/10/22 08:11:03;;;;;;;8.82;3.50;;;16.80;99.90;;;;;;5095832;28;20048;-86
2022/10/22 08:13:30;;;;;;;8.23;2.85;;;16.80;99.90;;;;;;5093198;28;20123;-90
2022/10/22 08:15:58;;;;;;;14.82;3.20;;;16.90;99.90;;;;;;5085684;28;20115;-91
2022/10/22 08:18:27;;;;;;;8.10;2.88;;;16.90;99.90;;;;;;5102785;28;20096;-90
2022/10/22 08:21:25;;;;;;;10.60;2.88;;;17.00;99.90;;;;;;5116037;28;20047;-93
2022/10/22 08:23:56;;;;;;;14.00;3.28;;;17.00;99.90;;;;;;5101519;28;20066;-93
2022/10/22 08:26:23;;;;;;;9.82;2.88;;;17.00;99.90;;;;;;5102444;28;20472;-90
2022/10/22 08:28:50;;;;;;;8.60;3.17;;;17.10;99.90;;;;;;5102951;28;20047;-87
2022/10/22 08:31:17;;;;;;;10.82;3.10;;;17.10;99.90;;;;;;5107661;28;20057;-90
2022/10/22 08:33:45;;;;;;;13.27;3.17;;;17.10;99.90;;;;;;5105249;28;20020;-92
2022/10/22 08:36:12;;;;;;;17.05;2.90;;;17.10;99.90;;;;;;5097214;28;20096;-91
2022/10/22 08:38:39;;;;;;;10.90;3.08;;;17.20;99.90;;;;;;5093396;28;20127;-93
2022/10/22 08:41:12;;;;;;;8.88;3.00;;;17.20;99.90;;;;;;5095834;28;20060;-81
2022/10/22 08:43:58;;;;;;;11.38;3.15;;;17.20;99.90;;;;;;5092417;28;20576;-92
2022/10/22 08:46:52;;;;;;;7.38;2.70;;;17.20;99.90;;;;;;5084052;28;20041;-78
2022/10/22 08:49:27;;;;;;;11.50;3.50;;;17.10;99.90;;;;;;5066598;28;20063;-85
2022/10/22 08:51:55;;;;;;;15.95;2.80;;;17.10;99.90;;;;;;5085908;28;20164;-86
2022/10/22 08:54:40;;;;;;;10.15;2.60;;;17.10;99.90;;;;;;5090380;28;20431;-85
2022/10/22 08:57:19;;;;;;;9.70;2.30;;;17.10;99.90;;;;;;5086550;28;20048;-85
2022/10/22 08:59:47;;;;;;;13.05;3.15;;;17.20;99.90;;;;;;5089291;28;20036;-84
2022/10/22 09:02:24;;;;;;;13.25;3.10;;;17.10;99.90;;;;;;5093470;28;20036;-89
2022/10/22 09:04:55;;;;;;;13.43;3.10;;;17.20;99.90;;;;;;5090210;28;20044;-88
2022/10/22 09:07:22;;;;;;;7.90;2.92;;;17.20;99.90;;;;;;5086868;28;20123;-92
2022/10/22 09:09:54;;;;;;;13.23;3.28;;;17.20;99.90;;;;;;5085840;28;20143;-83
2022/10/22 09:12:22;;;;;;;10.23;2.50;;;17.20;99.90;;;;;;5090045;28;20131;-92
2022/10/22 09:14:49;;;;;;;12.65;2.92;;;17.30;99.90;;;;;;5095300;28;20104;-90
2022/10/22 09:17:20;;;;;;;11.45;2.70;;;17.30;99.90;;;;;;5081548;28;20054;-90
2022/10/22 09:19:49;;;;;;;;;;;17.30;99.90;;;;;;5090602;28;20048;-90
2022/10/22 09:22:25;;;;;;;9.52;2.63;;;17.30;99.90;;;;;;5091978;28;19928;-90
2022/10/22 09:24:57;;;;;;;11.15;2.67;;;17.30;99.90;;;;;;5086850;28;20500;-90
2022/10/22 09:27:27;;;;;;;8.23;3.22;;;17.30;99.90;;;;;;5068223;28;20043;-91
2022/10/22 09:29:54;;;;;;;13.33;3.10;;;17.40;99.90;;;;;;5090424;28;20467;-90
2022/10/22 09:32:21;;;;;;;9.60;2.60;;;17.40;99.90;;;;;;5083018;28;20317;-89
2022/10/22 09:34:49;;;;;;;11.32;2.75;;;17.40;99.90;;;;;;5090876;28;20085;-90
2022/10/22 09:37:20;;;;;;;12.90;2.75;;;17.40;99.90;;;;;;5090677;28;20113;-90
2022/10/22 09:39:51;;;;;;;17.20;3.03;;;17.40;99.90;;;;;;5088759;28;20044;-89
2022/10/22 09:42:19;;;;;;;15.43;2.92;;;17.50;99.90;;;;;;5069983;28;20109;-90
2022/10/22 09:44:52;;;;;;;13.23;2.60;;;17.50;99.90;;;;;;5071849;28;20412;-90
2022/10/22 09:47:31;;;;;;;13.57;3.40;;;17.50;99.90;;;;;;5090780;28;20048;-90
2022/10/22 09:50:07;;;;;;;13.05;2.70;;;17.50;99.90;;;;;;5089121;28;20119;-90
2022/10/22 09:52:35;;;;;;;11.15;2.60;;;17.50;99.90;;;;;;5090828;28;20047;-91
2022/10/22 09:55:03;;;;;;;10.85;3.08;;;17.50;99.90;;;;;;5090256;28;20114;-90
2022/10/22 09:57:30;;;;;;;9.60;3.03;;;17.50;99.90;;;;;;5090599;28;20424;-90
2022/10/22 09:59:57;;;;;;;9.88;2.30;;;17.50;99.90;;;;;;5069320;28;20062;-90
2022/10/22 10:02:28;;;;;;;11.95;3.10;;;17.50;99.90;;;;;;5090657;28;20051;-90
2022/10/22 10:04:57;;;;;;;9.75;2.60;;;17.50;99.90;;;;;;5091018;28;20051;-91
2022/10/22 10:07:52;;;;;;;9.27;2.50;;;17.50;99.90;;;;;;5071420;28;20127;-91
2022/10/22 10:10:28;;;;;;;12.07;2.50;;;17.50;99.90;;;;;;5085755;28;20046;-83
2022/10/22 10:12:59;;;;;;;9.68;2.50;;;17.50;99.90;;;;;;5089011;28;20046;-87
2022/10/22 10:15:29;;;;;;;11.85;2.70;;;17.50;99.90;;;;;;5084238;28;20043;-87
2022/10/22 10:18:02;;;;;;;11.50;2.60;;;17.50;99.90;;;;;;5089338;28;20051;-87
2022/10/22 10:20:35;;;;;;;11.38;2.83;;;17.60;99.90;;;;;;5085827;28;20063;-83
2022/10/22 10:23:06;;;;;;;9.60;2.15;;;17.50;99.90;;;;;;5080280;28;20097;-83
2022/10/22 10:25:42;;;;;;;10.32;2.78;;;17.60;99.90;;;;;;5089194;28;20048;-83
2022/10/22 10:28:20;;;;;;;11.27;3.35;;;17.60;99.90;;;;;;5077902;28;20980;-79
2022/10/22 10:30:54;;;;;;;12.60;2.80;;;17.60;99.90;;;;;;5088410;28;20131;-80
2022/10/22 10:33:32;;;;;;;10.25;2.65;;;17.60;99.90;;;;;;5069522;28;20450;-80
2022/10/22 10:36:04;;;;;;;7.00;2.17;;;17.60;99.90;;;;;;5086008;28;20062;-85
2022/10/22 10:38:38;;;;;;;8.98;2.25;;;17.60;99.90;;;;;;5086229;28;20050;-84
2022/10/22 10:41:16;;;;;;;10.15;2.67;;;17.60;99.90;;;;;;5088167;28;20097;-84
2022/10/22 10:43:51;;;;;;;9.13;2.20;;;17.60;99.90;;;;;;5089000;28;20051;-84
2022/10/22 10:46:25;;;;;;;7.03;2.15;;;17.60;99.90;;;;;;5070331;28;20055;-84
2022/10/22 10:48:56;;;;;;;13.75;2.42;;;17.60;99.90;;;;;;5082622;28;20044;-84
2022/10/22 10:51:37;;;;;;;11.35;2.42;;;17.60;99.90;;;;;;5066232;28;20401;-84
2022/10/22 10:54:26;;;;;;;7.82;1.80;;;17.60;99.90;;;;;;5086495;28;20044;-83
2022/10/22 10:56:57;;;;;;;13.05;2.30;;;17.70;99.90;;;;;;5089252;28;20038;-82
2022/10/22 10:59:34;;;;;;;10.48;2.22;;;17.70;99.90;;;;;;5087687;28;20068;-83
2022/10/22 11:02:24;;;;;;;13.40;2.42;;;17.70;99.90;;;;;;5089108;28;20051;-84
2022/10/22 11:05:15;;;;;;;10.88;2.58;;;17.70;99.90;;;;;;5086493;28;20403;-85
2022/10/22 11:07:46;;;;;;;18.67;2.55;;;17.70;99.90;;;;;;5060681;28;20197;-83
2022/10/22 11:10:23;;;;;;;7.85;1.73;;;17.70;99.90;;;;;;5088433;28;20048;-84
2022/10/22 11:12:53;;;;;;;10.25;2.35;;;17.70;99.90;;;;;;5088833;28;20057;-85
2022/10/22 11:15:27;;;;;;;8.30;1.75;;;17.70;99.90;;;;;;5088962;28;20067;-85
2022/10/22 11:17:57;;;;;;;8.10;2.22;;;17.70;99.90;;;;;;5070538;28;20048;-90
2022/10/22 11:20:28;;;;;;;9.35;2.22;;;17.70;99.90;;;;;;5086535;28;20044;-86
2022/10/22 11:22:59;;;;;;;5.97;1.92;;;17.70;99.90;;;;;;5083234;28;20458;-87
2022/10/22 11:25:30;;;;;;;9.68;1.95;;;17.80;99.90;;;;;;5089120;28;20056;-87
2022/10/22 11:28:03;;;;;;;6.05;1.77;;;17.80;99.90;;;;;;5091376;28;20251;-85
2022/10/22 11:30:34;;;;;;;8.90;1.88;;;17.80;99.90;;;;;;5090883;28;20408;-84
2022/10/22 11:33:04;;;;;;;7.43;1.52;;;17.80;99.90;;;;;;5092033;28;20040;-85
2022/10/22 11:35:33;;;;;;;7.22;1.67;;;17.90;99.90;;;;;;5092643;28;20047;-81
2022/10/22 11:38:00;;;;;;;7.35;1.40;;;17.80;99.90;;;;;;5091781;28;20055;-81
2022/10/22 11:40:34;;;;;;;8.00;1.70;;;17.80;99.90;;;;;;5077292;28;20052;-80
2022/10/22 11:43:06;;;;;;;6.55;1.30;;;17.90;99.90;;;;;;5071431;28;20075;-80
2022/10/22 11:45:35;;;;;;;12.40;1.70;;;17.80;99.90;;;;;;5087139;28;20046;-80
2022/10/22 11:48:12;;;;;;;7.78;1.48;;;17.90;99.90;;;;;;5088241;28;20063;-80
2022/10/22 11:50:48;;;;;;;8.55;1.73;;;17.80;99.90;;;;;;5086231;28;20063;-80
2022/10/22 11:53:20;;;;;;;9.15;1.70;;;17.90;99.90;;;;;;5091526;28;20747;-81
2022/10/22 11:55:47;;;;;;;5.05;1.27;;;17.90;99.90;;;;;;5089313;28;20123;-80
2022/10/22 11:58:34;;;;;;;5.28;1.27;;;17.80;99.90;;;;;;5087199;28;20048;-80
2022/10/22 12:01:21;;;;;;;11.52;1.80;;;18.00;99.90;;;;;;5070715;28;20068;-80
2022/10/22 12:03:49;;;;;;;6.32;1.40;;;17.80;99.90;;;;;;5090804;28;20044;-80
2022/10/22 12:06:19;;;;;;;10.93;1.60;;;17.80;99.90;;;;;;5082051;28;20040;-80
2022/10/22 12:08:52;;;;;;;11.25;1.45;;;17.80;99.90;;;;;;5091557;28;20043;-80
2022/10/22 12:11:22;;;;;;;7.05;1.30;;;17.90;99.90;;;;;;5091475;28;20044;-81
2022/10/22 12:13:59;;;;;;;9.27;1.95;;;17.90;99.90;;;;;;5088294;28;20044;-80
2022/10/22 12:16:34;;;;;;;10.63;1.67;;;17.80;99.90;;;;;;5079544;28;20048;-80
2022/10/22 12:19:11;;;;;;;10.60;1.90;;;17.90;99.90;;;;;;5072854;28;20056;-80
2022/10/22 12:21:40;;;;;;;10.32;1.70;;;17.80;99.90;;;;;;5087598;28;20079;-80
2022/10/22 12:24:07;;;;;;;6.90;1.45;;;17.90;99.90;;;;;;5090772;28;20051;-80
2022/10/22 12:26:34;;;;;;;5.65;1.77;;;17.90;99.90;;;;;;5090111;28;20043;-82
2022/10/22 12:29:09;;;;;;;7.55;1.60;;;17.90;99.90;;;;;;5090951;28;20047;-83
2022/10/22 12:31:37;;;;;;;7.35;1.50;;;17.90;99.90;;;;;;5088693;28;20042;-85
2022/10/22 12:34:04;;;;;;;10.05;1.65;;;17.90;99.90;;;;;;5083398;28;20569;-85
2022/10/22 12:36:33;;;;;;;4.75;1.35;;;17.90;99.90;;;;;;5091503;28;20043;-83
2022/10/22 12:39:01;;;;;;;11.68;1.70;;;17.90;99.90;;;;;;5091113;28;20069;-84
2022/10/22 12:41:31;;;;;;;5.55;1.33;;;17.90;99.90;;;;;;5087644;28;20761;-84
2022/10/22 12:43:59;;;;;;;7.25;1.73;;;18.00;99.90;;;;;;5090945;28;20040;-83
2022/10/22 12:46:29;;;;;;;5.30;1.30;;;18.00;99.90;;;;;;5090998;28;20066;-82
2022/10/22 12:48:59;;;;;;;10.30;1.67;;;18.00;99.90;;;;;;5084616;28;20508;-82
2022/10/22 12:51:26;;;;;;;6.38;1.23;;;17.90;99.90;;;;;;5090098;28;20043;-82
2022/10/22 12:53:55;;;;;;;8.82;1.80;;;18.00;99.90;;;;;;5086848;28;20047;-82